sensor_id;sensor_type;location;lat;lon;timestamp;temperature;humidity
54431;DHT22;40342;52.998;5.862;2024-03-07T00:01:17;4.30;99.90
54431;DHT22;40342;52.998;5.862;2024-03-07T00:03:43;4.30;99.90
54431;DHT22;40342;52.998;5.862;2024-03-07T00:06:10;4.30;99.90
54431;DHT22;40342;52.998;5.862;2024-03-07T00:08:35;4.20;99.90
54431;DHT22;40342;52.998;5.862;2024-03-07T00:11:01;4.30;99.90
54431;DHT22;40342;52.998;5.862;2024-03-07T00:13:27;4.20;99.90
54431;DHT22;40342;52.998;5.862;2024-03-07T00:15:53;4.20;99.90
54431;DHT22;40342;52.998;5.862;2024-03-07T00:18:19;4.20;99.90
54431;DHT22;40342;52.998;5.862;2024-03-07T00:20:44;4.20;99.90
54431;DHT22;40342;52.998;5.862;2024-03-07T00:23:10;4.20;99.90
54431;DHT22;40342;52.998;5.862;2024-03-07T00:25:36;4.20;99.90
54431;DHT22;40342;52.998;5.862;2024-03-07T00:28:02;4.10;99.90
54431;DHT22;40342;52.998;5.862;2024-03-07T00:30:29;4.10;99.90
54431;DHT22;40342;52.998;5.862;2024-03-07T00:32:58;4.10;99.90
54431;DHT22;40342;52.998;5.862;2024-03-07T00:35:24;4.10;99.90
54431;DHT22;40342;52.998;5.862;2024-03-07T00:37:50;4.10;99.90
54431;DHT22;40342;52.998;5.862;2024-03-07T00:40:15;4.10;99.90
54431;DHT22;40342;52.998;5.862;2024-03-07T00:42:41;4.10;99.90
54431;DHT22;40342;52.998;5.862;2024-03-07T00:45:07;4.00;99.90
54431;DHT22;40342;52.998;5.862;2024-03-07T00:47:33;4.00;99.90
54431;DHT22;40342;52.998;5.862;2024-03-07T00:49:59;4.00;99.90
54431;DHT22;40342;52.998;5.862;2024-03-07T00:52:24;4.00;99.90
54431;DHT22;40342;52.998;5.862;2024-03-07T00:54:50;4.00;99.90
54431;DHT22;40342;52.998;5.862;2024-03-07T00:57:16;4.00;99.90
54431;DHT22;40342;52.998;5.862;2024-03-07T00:59:42;4.00;99.90
54431;DHT22;40342;52.998;5.862;2024-03-07T01:02:08;4.00;99.90
54431;DHT22;40342;52.998;5.862;2024-03-07T01:04:33;3.90;99.90
54431;DHT22;40342;52.998;5.862;2024-03-07T01:06:59;4.00;99.90
54431;DHT22;40342;52.998;5.862;2024-03-07T01:09:26;3.90;99.90
54431;DHT22;40342;52.998;5.862;2024-03-07T01:11:54;3.90;99.90
54431;DHT22;40342;52.998;5.862;2024-03-07T01:14:20;3.90;99.90
54431;DHT22;40342;52.998;5.862;2024-03-07T01:16:46;3.90;99.90
54431;DHT22;40342;52.998;5.862;2024-03-07T01:19:12;3.90;99.90
54431;DHT22;40342;52.998;5.862;2024-03-07T01:21:38;3.90;99.90
54431;DHT22;40342;52.998;5.862;2024-03-07T01:24:04;3.90;99.90
54431;DHT22;40342;52.998;5.862;2024-03-07T01:26:31;3.80;99.90
54431;DHT22;40342;52.998;5.862;2024-03-07T01:28:59;3.80;99.90
54431;DHT22;40342;52.998;5.862;2024-03-07T01:31:25;3.80;99.90
54431;DHT22;40342;52.998;5.862;2024-03-07T01:33:51;3.70;99.90
54431;DHT22;40342;52.998;5.862;2024-03-07T01:36:17;3.70;99.90
54431;DHT22;40342;52.998;5.862;2024-03-07T01:38:42;3.70;99.90
54431;DHT22;40342;52.998;5.862;2024-03-07T01:41:08;3.70;99.90
54431;DHT22;40342;52.998;5.862;2024-03-07T01:43:34;3.70;99.90
54431;DHT22;40342;52.998;5.862;2024-03-07T01:45:59;3.60;99.90
54431;DHT22;40342;52.998;5.862;2024-03-07T01:48:27;3.60;99.90
54431;DHT22;40342;52.998;5.862;2024-03-07T01:51:00;3.60;99.90
54431;DHT22;40342;52.998;5.862;2024-03-07T01:53:30;3.60;99.90
54431;DHT22;40342;52.998;5.862;2024-03-07T01:55:59;3.60;99.90
54431;DHT22;40342;52.998;5.862;2024-03-07T01:58:25;3.60;99.90
54431;DHT22;40342;52.998;5.862;2024-03-07T02:00:51;3.60;99.90
54431;DHT22;40342;52.998;5.862;2024-03-07T02:03:17;3.60;99.90
54431;DHT22;40342;52.998;5.862;2024-03-07T02:05:43;3.60;99.90
54431;DHT22;40342;52.998;5.862;2024-03-07T02:08:09;3.60;99.90
54431;DHT22;40342;52.998;5.862;2024-03-07T02:10:34;3.60;99.90
54431;DHT22;40342;52.998;5.862;2024-03-07T02:13:00;3.60;99.90
54431;DHT22;40342;52.998;5.862;2024-03-07T02:15:26;3.60;99.90
54431;DHT22;40342;52.998;5.862;2024-03-07T02:17:53;3.60;99.90
54431;DHT22;40342;52.998;5.862;2024-03-07T02:20:18;3.50;99.90
54431;DHT22;40342;52.998;5.862;2024-03-07T02:22:44;3.50;99.90
54431;DHT22;40342;52.998;5.862;2024-03-07T02:25:10;3.50;99.90
54431;DHT22;40342;52.998;5.862;2024-03-07T02:27:36;3.50;99.90
54431;DHT22;40342;52.998;5.862;2024-03-07T02:30:03;3.50;99.90
54431;DHT22;40342;52.998;5.862;2024-03-07T02:32:29;3.50;99.90
54431;DHT22;40342;52.998;5.862;2024-03-07T02:34:54;3.50;99.90
54431;DHT22;40342;52.998;5.862;2024-03-07T02:37:20;3.50;99.90
54431;DHT22;40342;52.998;5.862;2024-03-07T02:39:46;3.50;99.90
54431;DHT22;40342;52.998;5.862;2024-03-07T02:42:11;3.50;99.90
54431;DHT22;40342;52.998;5.862;2024-03-07T02:44:37;3.40;99.90
54431;DHT22;40342;52.998;5.862;2024-03-07T02:47:04;3.40;99.90
54431;DHT22;40342;52.998;5.862;2024-03-07T02:49:30;3.40;99.90
54431;DHT22;40342;52.998;5.862;2024-03-07T02:51:56;3.80;99.90
54431;DHT22;40342;52.998;5.862;2024-03-07T02:54:21;3.40;99.90
54431;DHT22;40342;52.998;5.862;2024-03-07T02:56:47;3.30;99.90
54431;DHT22;40342;52.998;5.862;2024-03-07T02:59:13;3.30;99.90
54431;DHT22;40342;52.998;5.862;2024-03-07T03:01:39;3.30;99.90
54431;DHT22;40342;52.998;5.862;2024-03-07T03:04:05;3.30;99.90
54431;DHT22;40342;52.998;5.862;2024-03-07T03:06:30;3.30;99.90
54431;DHT22;40342;52.998;5.862;2024-03-07T03:08:57;3.30;99.90
54431;DHT22;40342;52.998;5.862;2024-03-07T03:11:22;3.30;99.90
54431;DHT22;40342;52.998;5.862;2024-03-07T03:13:48;3.30;99.90
54431;DHT22;40342;52.998;5.862;2024-03-07T03:16:14;3.20;99.90
54431;DHT22;40342;52.998;5.862;2024-03-07T03:18:40;3.20;99.90
54431;DHT22;40342;52.998;5.862;2024-03-07T03:21:05;3.20;99.90
54431;DHT22;40342;52.998;5.862;2024-03-07T03:23:31;3.10;99.90
54431;DHT22;40342;52.998;5.862;2024-03-07T03:25:56;3.10;99.90
54431;DHT22;40342;52.998;5.862;2024-03-07T03:28:22;3.00;99.90
54431;DHT22;40342;52.998;5.862;2024-03-07T03:30:49;3.00;99.90
54431;DHT22;40342;52.998;5.862;2024-03-07T03:33:15;3.00;99.90
54431;DHT22;40342;52.998;5.862;2024-03-07T03:35:41;2.90;99.90
54431;DHT22;40342;52.998;5.862;2024-03-07T03:38:08;2.90;99.90
54431;DHT22;40342;52.998;5.862;2024-03-07T03:40:33;2.90;99.90
54431;DHT22;40342;52.998;5.862;2024-03-07T03:42:59;2.80;99.90
54431;DHT22;40342;52.998;5.862;2024-03-07T03:45:26;2.80;99.90
54431;DHT22;40342;52.998;5.862;2024-03-07T03:47:52;2.80;99.90
54431;DHT22;40342;52.998;5.862;2024-03-07T03:50:17;2.80;99.90
54431;DHT22;40342;52.998;5.862;2024-03-07T03:52:43;2.80;99.90
54431;DHT22;40342;52.998;5.862;2024-03-07T03:55:09;2.80;99.90
54431;DHT22;40342;52.998;5.862;2024-03-07T03:57:36;2.80;99.90
54431;DHT22;40342;52.998;5.862;2024-03-07T04:00:03;2.80;99.90
54431;DHT22;40342;52.998;5.862;2024-03-07T04:02:35;2.80;99.90
54431;DHT22;40342;52.998;5.862;2024-03-07T04:05:02;2.80;99.90
54431;DHT22;40342;52.998;5.862;2024-03-07T04:07:29;2.80;99.90
54431;DHT22;40342;52.998;5.862;2024-03-07T04:09:56;2.70;99.90
54431;DHT22;40342;52.998;5.862;2024-03-07T04:12:23;2.80;99.90
54431;DHT22;40342;52.998;5.862;2024-03-07T04:14:49;2.70;99.90
54431;DHT22;40342;52.998;5.862;2024-03-07T04:17:14;2.70;99.90
54431;DHT22;40342;52.998;5.862;2024-03-07T04:19:41;2.70;99.90
54431;DHT22;40342;52.998;5.862;2024-03-07T04:22:07;2.70;99.90
54431;DHT22;40342;52.998;5.862;2024-03-07T04:24:34;2.60;99.90
54431;DHT22;40342;52.998;5.862;2024-03-07T04:27:01;2.60;99.90
54431;DHT22;40342;52.998;5.862;2024-03-07T04:29:30;2.60;99.90
54431;DHT22;40342;52.998;5.862;2024-03-07T04:31:55;2.50;99.90
54431;DHT22;40342;52.998;5.862;2024-03-07T04:34:21;2.50;99.90
54431;DHT22;40342;52.998;5.862;2024-03-07T04:36:47;2.50;99.90
54431;DHT22;40342;52.998;5.862;2024-03-07T04:39:12;2.50;99.90
54431;DHT22;40342;52.998;5.862;2024-03-07T04:41:51;2.40;99.90
54431;DHT22;40342;52.998;5.862;2024-03-07T04:44:18;2.40;99.90
54431;DHT22;40342;52.998;5.862;2024-03-07T04:46:44;2.40;99.90
54431;DHT22;40342;52.998;5.862;2024-03-07T04:49:10;2.30;99.90
54431;DHT22;40342;52.998;5.862;2024-03-07T04:51:36;2.30;99.90
54431;DHT22;40342;52.998;5.862;2024-03-07T04:54:01;2.20;99.90
54431;DHT22;40342;52.998;5.862;2024-03-07T04:56:27;2.20;99.90
54431;DHT22;40342;52.998;5.862;2024-03-07T04:58:52;2.20;99.90
54431;DHT22;40342;52.998;5.862;2024-03-07T05:01:20;2.20;99.90
54431;DHT22;40342;52.998;5.862;2024-03-07T05:03:46;2.10;99.90
54431;DHT22;40342;52.998;5.862;2024-03-07T05:06:11;2.10;99.90
54431;DHT22;40342;52.998;5.862;2024-03-07T05:08:38;2.10;99.90
54431;DHT22;40342;52.998;5.862;2024-03-07T05:11:04;2.10;99.90
54431;DHT22;40342;52.998;5.862;2024-03-07T05:13:30;2.10;99.90
54431;DHT22;40342;52.998;5.862;2024-03-07T05:15:57;2.00;99.90
54431;DHT22;40342;52.998;5.862;2024-03-07T05:18:23;2.00;99.90
54431;DHT22;40342;52.998;5.862;2024-03-07T05:20:49;2.00;99.90
54431;DHT22;40342;52.998;5.862;2024-03-07T05:23:14;2.00;99.90
54431;DHT22;40342;52.998;5.862;2024-03-07T05:25:40;2.00;99.90
54431;DHT22;40342;52.998;5.862;2024-03-07T05:28:06;2.00;99.90
54431;DHT22;40342;52.998;5.862;2024-03-07T05:30:31;1.90;99.90
54431;DHT22;40342;52.998;5.862;2024-03-07T05:32:58;1.90;99.90
54431;DHT22;40342;52.998;5.862;2024-03-07T05:35:27;1.90;99.90
54431;DHT22;40342;52.998;5.862;2024-03-07T05:37:55;1.90;99.90
54431;DHT22;40342;52.998;5.862;2024-03-07T05:40:22;1.90;99.90
54431;DHT22;40342;52.998;5.862;2024-03-07T05:42:48;1.80;99.90
54431;DHT22;40342;52.998;5.862;2024-03-07T05:45:14;1.80;99.90
54431;DHT22;40342;52.998;5.862;2024-03-07T05:47:43;1.80;99.90
54431;DHT22;40342;52.998;5.862;2024-03-07T05:50:09;1.80;99.90
54431;DHT22;40342;52.998;5.862;2024-03-07T05:52:34;1.80;99.90
54431;DHT22;40342;52.998;5.862;2024-03-07T05:55:00;1.70;99.90
54431;DHT22;40342;52.998;5.862;2024-03-07T05:57:26;1.70;99.90
54431;DHT22;40342;52.998;5.862;2024-03-07T05:59:51;1.70;99.90
54431;DHT22;40342;52.998;5.862;2024-03-07T06:02:17;1.70;99.90
54431;DHT22;40342;52.998;5.862;2024-03-07T06:04:43;1.60;99.90
54431;DHT22;40342;52.998;5.862;2024-03-07T06:07:09;1.60;99.90
54431;DHT22;40342;52.998;5.862;2024-03-07T06:09:36;1.60;99.90
54431;DHT22;40342;52.998;5.862;2024-03-07T06:12:02;1.60;99.90
54431;DHT22;40342;52.998;5.862;2024-03-07T06:14:29;1.60;99.90
54431;DHT22;40342;52.998;5.862;2024-03-07T06:16:55;1.60;99.90
54431;DHT22;40342;52.998;5.862;2024-03-07T06:19:23;1.60;99.90
54431;DHT22;40342;52.998;5.862;2024-03-07T06:21:49;1.60;99.90
54431;DHT22;40342;52.998;5.862;2024-03-07T06:24:15;1.60;99.90
54431;DHT22;40342;52.998;5.862;2024-03-07T06:26:40;1.60;99.90
54431;DHT22;40342;52.998;5.862;2024-03-07T06:29:09;1.60;99.90
54431;DHT22;40342;52.998;5.862;2024-03-07T06:31:37;1.60;99.90
54431;DHT22;40342;52.998;5.862;2024-03-07T06:34:03;1.60;99.90
54431;DHT22;40342;52.998;5.862;2024-03-07T06:36:29;1.60;99.90
54431;DHT22;40342;52.998;5.862;2024-03-07T06:38:55;1.60;99.90
54431;DHT22;40342;52.998;5.862;2024-03-07T06:41:20;1.60;99.90
54431;DHT22;40342;52.998;5.862;2024-03-07T06:43:46;1.60;99.90
54431;DHT22;40342;52.998;5.862;2024-03-07T06:46:12;1.60;99.90
54431;DHT22;40342;52.998;5.862;2024-03-07T06:48:38;1.60;99.90
54431;DHT22;40342;52.998;5.862;2024-03-07T06:51:06;1.60;99.90
54431;DHT22;40342;52.998;5.862;2024-03-07T06:53:32;1.60;99.90
54431;DHT22;40342;52.998;5.862;2024-03-07T06:55:57;1.60;99.90
54431;DHT22;40342;52.998;5.862;2024-03-07T06:58:23;1.60;99.90
54431;DHT22;40342;52.998;5.862;2024-03-07T07:00:49;1.60;99.90
54431;DHT22;40342;52.998;5.862;2024-03-07T07:03:19;1.70;99.90
54431;DHT22;40342;52.998;5.862;2024-03-07T07:05:46;1.70;99.90
54431;DHT22;40342;52.998;5.862;2024-03-07T07:08:12;1.70;99.90
54431;DHT22;40342;52.998;5.862;2024-03-07T07:10:39;1.70;99.90
54431;DHT22;40342;52.998;5.862;2024-03-07T07:13:06;1.70;99.90
54431;DHT22;40342;52.998;5.862;2024-03-07T07:15:32;1.70;99.90
54431;DHT22;40342;52.998;5.862;2024-03-07T07:17:58;1.70;99.90
54431;DHT22;40342;52.998;5.862;2024-03-07T07:20:24;1.80;99.90
54431;DHT22;40342;52.998;5.862;2024-03-07T07:22:50;1.80;99.90
54431;DHT22;40342;52.998;5.862;2024-03-07T07:25:16;1.80;99.90
54431;DHT22;40342;52.998;5.862;2024-03-07T07:30:13;1.90;99.90
54431;DHT22;40342;52.998;5.862;2024-03-07T07:32:39;1.90;99.90
54431;DHT22;40342;52.998;5.862;2024-03-07T07:35:07;1.90;99.90
54431;DHT22;40342;52.998;5.862;2024-03-07T07:37:37;1.90;99.90
54431;DHT22;40342;52.998;5.862;2024-03-07T07:40:04;2.00;99.90
54431;DHT22;40342;52.998;5.862;2024-03-07T07:42:29;2.00;99.90
54431;DHT22;40342;52.998;5.862;2024-03-07T07:44:55;2.00;99.90
54431;DHT22;40342;52.998;5.862;2024-03-07T07:47:21;2.10;99.90
54431;DHT22;40342;52.998;5.862;2024-03-07T07:49:46;2.10;99.90
54431;DHT22;40342;52.998;5.862;2024-03-07T07:52:12;2.10;99.90
54431;DHT22;40342;52.998;5.862;2024-03-07T07:54:42;2.10;99.90
54431;DHT22;40342;52.998;5.862;2024-03-07T07:57:07;2.20;99.90
54431;DHT22;40342;52.998;5.862;2024-03-07T07:59:33;2.20;99.90
54431;DHT22;40342;52.998;5.862;2024-03-07T08:01:58;2.20;99.90
54431;DHT22;40342;52.998;5.862;2024-03-07T08:04:24;2.30;99.90
54431;DHT22;40342;52.998;5.862;2024-03-07T08:06:50;2.30;99.90
54431;DHT22;40342;52.998;5.862;2024-03-07T08:09:17;2.30;99.90
54431;DHT22;40342;52.998;5.862;2024-03-07T08:11:42;2.30;99.90
54431;DHT22;40342;52.998;5.862;2024-03-07T08:14:08;2.40;99.90
54431;DHT22;40342;52.998;5.862;2024-03-07T08:16:34;2.40;99.90
54431;DHT22;40342;52.998;5.862;2024-03-07T08:18:59;2.50;99.90
54431;DHT22;40342;52.998;5.862;2024-03-07T08:21:25;2.50;99.90
54431;DHT22;40342;52.998;5.862;2024-03-07T08:23:51;2.60;99.90
54431;DHT22;40342;52.998;5.862;2024-03-07T08:26:17;2.60;99.90
54431;DHT22;40342;52.998;5.862;2024-03-07T08:28:42;2.60;99.90
54431;DHT22;40342;52.998;5.862;2024-03-07T08:31:08;2.60;99.90
54431;DHT22;40342;52.998;5.862;2024-03-07T08:33:35;2.70;99.90
54431;DHT22;40342;52.998;5.862;2024-03-07T08:36:00;2.70;99.90
54431;DHT22;40342;52.998;5.862;2024-03-07T08:38:26;2.70;99.90
54431;DHT22;40342;52.998;5.862;2024-03-07T08:40:52;2.80;99.90
54431;DHT22;40342;52.998;5.862;2024-03-07T08:43:18;2.80;99.90
54431;DHT22;40342;52.998;5.862;2024-03-07T08:45:44;2.80;99.90
54431;DHT22;40342;52.998;5.862;2024-03-07T08:48:09;2.80;99.90
54431;DHT22;40342;52.998;5.862;2024-03-07T08:50:35;2.90;99.90
54431;DHT22;40342;52.998;5.862;2024-03-07T08:53:03;2.90;99.90
54431;DHT22;40342;52.998;5.862;2024-03-07T08:55:32;2.90;99.90
54431;DHT22;40342;52.998;5.862;2024-03-07T08:57:58;3.00;99.90
54431;DHT22;40342;52.998;5.862;2024-03-07T09:00:23;3.00;99.90
54431;DHT22;40342;52.998;5.862;2024-03-07T09:02:50;3.10;99.90
54431;DHT22;40342;52.998;5.862;2024-03-07T09:05:20;3.20;99.90
54431;DHT22;40342;52.998;5.862;2024-03-07T09:07:48;3.20;99.90
54431;DHT22;40342;52.998;5.862;2024-03-07T09:10:14;3.20;99.90
54431;DHT22;40342;52.998;5.862;2024-03-07T09:12:40;3.30;99.90
54431;DHT22;40342;52.998;5.862;2024-03-07T09:15:07;3.30;99.90
54431;DHT22;40342;52.998;5.862;2024-03-07T09:17:32;3.40;99.90
54431;DHT22;40342;52.998;5.862;2024-03-07T09:19:58;3.40;99.90
54431;DHT22;40342;52.998;5.862;2024-03-07T09:22:24;3.50;99.90
54431;DHT22;40342;52.998;5.862;2024-03-07T09:24:50;3.60;99.90
54431;DHT22;40342;52.998;5.862;2024-03-07T09:27:17;3.60;99.90
54431;DHT22;40342;52.998;5.862;2024-03-07T09:29:45;3.70;99.90
54431;DHT22;40342;52.998;5.862;2024-03-07T09:32:13;3.70;99.90
54431;DHT22;40342;52.998;5.862;2024-03-07T09:34:39;3.80;99.90
54431;DHT22;40342;52.998;5.862;2024-03-07T09:37:05;3.80;99.90
54431;DHT22;40342;52.998;5.862;2024-03-07T09:39:34;3.90;99.90
54431;DHT22;40342;52.998;5.862;2024-03-07T09:42:03;4.00;99.90
54431;DHT22;40342;52.998;5.862;2024-03-07T09:44:34;4.10;99.90
54431;DHT22;40342;52.998;5.862;2024-03-07T09:47:00;4.30;99.90
54431;DHT22;40342;52.998;5.862;2024-03-07T09:49:28;4.30;99.90
54431;DHT22;40342;52.998;5.862;2024-03-07T09:51:55;4.40;99.90
54431;DHT22;40342;52.998;5.862;2024-03-07T09:54:25;4.50;99.90
54431;DHT22;40342;52.998;5.862;2024-03-07T09:56:53;4.60;99.90
54431;DHT22;40342;52.998;5.862;2024-03-07T09:59:19;4.60;99.90
54431;DHT22;40342;52.998;5.862;2024-03-07T10:01:50;4.60;99.90
54431;DHT22;40342;52.998;5.862;2024-03-07T10:07:18;4.50;99.90
54431;DHT22;40342;52.998;5.862;2024-03-07T10:09:44;4.50;99.90
54431;DHT22;40342;52.998;5.862;2024-03-07T10:12:10;4.40;99.90
54431;DHT22;40342;52.998;5.862;2024-03-07T10:14:58;4.40;99.90
54431;DHT22;40342;52.998;5.862;2024-03-07T10:17:24;4.40;99.90
54431;DHT22;40342;52.998;5.862;2024-03-07T10:19:51;4.30;99.90
54431;DHT22;40342;52.998;5.862;2024-03-07T10:22:18;4.30;99.90
54431;DHT22;40342;52.998;5.862;2024-03-07T10:24:56;4.30;99.90
54431;DHT22;40342;52.998;5.862;2024-03-07T10:27:27;4.20;99.90
54431;DHT22;40342;52.998;5.862;2024-03-07T10:29:54;4.20;99.90
54431;DHT22;40342;52.998;5.862;2024-03-07T10:32:23;4.10;99.90
54431;DHT22;40342;52.998;5.862;2024-03-07T10:34:53;4.20;99.90
54431;DHT22;40342;52.998;5.862;2024-03-07T10:37:19;4.10;99.90
54431;DHT22;40342;52.998;5.862;2024-03-07T10:39:50;4.00;99.90
54431;DHT22;40342;52.998;5.862;2024-03-07T10:42:17;4.00;99.90
54431;DHT22;40342;52.998;5.862;2024-03-07T10:44:45;4.00;99.90
54431;DHT22;40342;52.998;5.862;2024-03-07T10:47:16;4.00;99.90
54431;DHT22;40342;52.998;5.862;2024-03-07T10:53:34;4.10;99.90
54431;DHT22;40342;52.998;5.862;2024-03-07T10:55:39;4.10;99.90
54431;DHT22;40342;52.998;5.862;2024-03-07T10:58:27;4.10;99.90
54431;DHT22;40342;52.998;5.862;2024-03-07T11:00:58;4.20;99.90
54431;DHT22;40342;52.998;5.862;2024-03-07T11:03:30;4.30;99.90
54431;DHT22;40342;52.998;5.862;2024-03-07T11:05:59;4.30;99.90
54431;DHT22;40342;52.998;5.862;2024-03-07T11:08:25;4.30;99.90
54431;DHT22;40342;52.998;5.862;2024-03-07T11:10:52;4.30;99.90
54431;DHT22;40342;52.998;5.862;2024-03-07T11:13:18;4.30;99.90
54431;DHT22;40342;52.998;5.862;2024-03-07T11:15:47;4.30;99.90
54431;DHT22;40342;52.998;5.862;2024-03-07T11:18:13;4.30;99.90
54431;DHT22;40342;52.998;5.862;2024-03-07T11:20:40;4.40;99.90
54431;DHT22;40342;52.998;5.862;2024-03-07T11:23:28;4.50;99.90
54431;DHT22;40342;52.998;5.862;2024-03-07T11:28:33;4.60;99.90
54431;DHT22;40342;52.998;5.862;2024-03-07T11:31:26;4.80;99.90
54431;DHT22;40342;52.998;5.862;2024-03-07T11:34:15;4.90;99.90
54431;DHT22;40342;52.998;5.862;2024-03-07T11:36:45;5.10;99.90
54431;DHT22;40342;52.998;5.862;2024-03-07T11:42:04;5.30;99.90
54431;DHT22;40342;52.998;5.862;2024-03-07T11:44:32;5.30;99.90
54431;DHT22;40342;52.998;5.862;2024-03-07T11:47:01;5.30;99.90
54431;DHT22;40342;52.998;5.862;2024-03-07T11:49:35;5.20;99.90
54431;DHT22;40342;52.998;5.862;2024-03-07T11:52:02;5.20;99.90
54431;DHT22;40342;52.998;5.862;2024-03-07T11:54:30;5.30;99.90
54431;DHT22;40342;52.998;5.862;2024-03-07T11:56:57;5.40;99.90
54431;DHT22;40342;52.998;5.862;2024-03-07T11:59:23;5.70;99.90
54431;DHT22;40342;52.998;5.862;2024-03-07T12:01:49;5.80;99.90
54431;DHT22;40342;52.998;5.862;2024-03-07T12:04:15;6.10;99.90
54431;DHT22;40342;52.998;5.862;2024-03-07T12:06:52;6.30;99.90
54431;DHT22;40342;52.998;5.862;2024-03-07T12:09:18;6.40;99.90
54431;DHT22;40342;52.998;5.862;2024-03-07T12:11:52;6.40;99.90
54431;DHT22;40342;52.998;5.862;2024-03-07T12:14:19;6.40;99.90
54431;DHT22;40342;52.998;5.862;2024-03-07T12:16:45;6.30;99.90
54431;DHT22;40342;52.998;5.862;2024-03-07T12:19:12;6.20;99.90
54431;DHT22;40342;52.998;5.862;2024-03-07T12:21:37;6.20;99.90
54431;DHT22;40342;52.998;5.862;2024-03-07T12:24:14;6.20;99.90
54431;DHT22;40342;52.998;5.862;2024-03-07T12:26:41;6.30;99.90
54431;DHT22;40342;52.998;5.862;2024-03-07T12:29:11;6.30;99.90
54431;DHT22;40342;52.998;5.862;2024-03-07T12:31:43;6.30;99.90
54431;DHT22;40342;52.998;5.862;2024-03-07T12:34:08;6.30;99.90
54431;DHT22;40342;52.998;5.862;2024-03-07T12:36:37;6.40;99.90
54431;DHT22;40342;52.998;5.862;2024-03-07T12:39:23;6.40;99.90
54431;DHT22;40342;52.998;5.862;2024-03-07T12:42:04;6.40;99.90
54431;DHT22;40342;52.998;5.862;2024-03-07T12:44:46;6.40;99.90
54431;DHT22;40342;52.998;5.862;2024-03-07T12:47:13;6.40;99.90
54431;DHT22;40342;52.998;5.862;2024-03-07T12:49:42;6.30;99.90
54431;DHT22;40342;52.998;5.862;2024-03-07T12:52:08;6.30;99.90
54431;DHT22;40342;52.998;5.862;2024-03-07T12:54:37;6.30;99.90
54431;DHT22;40342;52.998;5.862;2024-03-07T12:57:11;6.40;99.90
54431;DHT22;40342;52.998;5.862;2024-03-07T12:59:40;6.50;99.90
54431;DHT22;40342;52.998;5.862;2024-03-07T13:02:10;6.60;99.90
54431;DHT22;40342;52.998;5.862;2024-03-07T13:04:36;6.70;99.90
54431;DHT22;40342;52.998;5.862;2024-03-07T13:07:03;6.70;99.90
54431;DHT22;40342;52.998;5.862;2024-03-07T13:09:33;6.60;99.90
54431;DHT22;40342;52.998;5.862;2024-03-07T13:11:59;6.50;99.90
54431;DHT22;40342;52.998;5.862;2024-03-07T13:14:35;6.50;99.90
54431;DHT22;40342;52.998;5.862;2024-03-07T13:17:02;6.50;99.90
54431;DHT22;40342;52.998;5.862;2024-03-07T13:19:28;6.40;99.90
54431;DHT22;40342;52.998;5.862;2024-03-07T13:21:55;6.40;99.90
54431;DHT22;40342;52.998;5.862;2024-03-07T13:24:25;6.40;99.90
54431;DHT22;40342;52.998;5.862;2024-03-07T13:26:51;6.30;99.90
54431;DHT22;40342;52.998;5.862;2024-03-07T13:29:17;6.30;99.90
54431;DHT22;40342;52.998;5.862;2024-03-07T13:31:48;6.30;99.90
54431;DHT22;40342;52.998;5.862;2024-03-07T13:34:14;6.30;99.90
54431;DHT22;40342;52.998;5.862;2024-03-07T13:36:40;6.30;99.90
54431;DHT22;40342;52.998;5.862;2024-03-07T13:39:07;6.30;99.90
54431;DHT22;40342;52.998;5.862;2024-03-07T13:41:37;6.30;99.90
54431;DHT22;40342;52.998;5.862;2024-03-07T13:44:07;6.40;99.90
54431;DHT22;40342;52.998;5.862;2024-03-07T13:46:33;6.40;99.90
54431;DHT22;40342;52.998;5.862;2024-03-07T13:49:02;6.40;99.90
54431;DHT22;40342;52.998;5.862;2024-03-07T13:51:42;6.40;99.90
54431;DHT22;40342;52.998;5.862;2024-03-07T13:54:21;6.30;99.90
54431;DHT22;40342;52.998;5.862;2024-03-07T13:59:56;6.30;99.90
54431;DHT22;40342;52.998;5.862;2024-03-07T14:11:52;6.30;99.90
54431;DHT22;40342;52.998;5.862;2024-03-07T14:14:49;6.30;99.90
54431;DHT22;40342;52.998;5.862;2024-03-07T14:26:34;6.30;99.90
54431;DHT22;40342;52.998;5.862;2024-03-07T14:31:52;6.40;99.90
54431;DHT22;40342;52.998;5.862;2024-03-07T14:37:02;6.40;99.90
54431;DHT22;40342;52.998;5.862;2024-03-07T14:39:29;6.30;99.90
54431;DHT22;40342;52.998;5.862;2024-03-07T14:41:58;6.30;99.90
54431;DHT22;40342;52.998;5.862;2024-03-07T14:44:24;6.30;99.90
54431;DHT22;40342;52.998;5.862;2024-03-07T14:47:01;6.30;99.90
54431;DHT22;40342;52.998;5.862;2024-03-07T14:49:31;6.30;99.90
54431;DHT22;40342;52.998;5.862;2024-03-07T14:51:58;6.30;99.90
54431;DHT22;40342;52.998;5.862;2024-03-07T14:54:24;6.30;99.90
54431;DHT22;40342;52.998;5.862;2024-03-07T14:56:50;6.30;99.90
54431;DHT22;40342;52.998;5.862;2024-03-07T14:59:15;6.20;99.90
54431;DHT22;40342;52.998;5.862;2024-03-07T15:01:43;6.20;99.90
54431;DHT22;40342;52.998;5.862;2024-03-07T15:04:10;6.20;99.90
54431;DHT22;40342;52.998;5.862;2024-03-07T15:06:42;6.20;99.90
54431;DHT22;40342;52.998;5.862;2024-03-07T15:09:11;6.10;99.90
54431;DHT22;40342;52.998;5.862;2024-03-07T15:11:38;6.10;99.90
54431;DHT22;40342;52.998;5.862;2024-03-07T15:14:06;6.10;99.90
54431;DHT22;40342;52.998;5.862;2024-03-07T15:16:34;6.10;99.90
54431;DHT22;40342;52.998;5.862;2024-03-07T15:19:07;6.10;99.90
54431;DHT22;40342;52.998;5.862;2024-03-07T15:21:36;6.10;99.90
54431;DHT22;40342;52.998;5.862;2024-03-07T15:24:07;6.00;99.90
54431;DHT22;40342;52.998;5.862;2024-03-07T15:26:32;6.00;99.90
54431;DHT22;40342;52.998;5.862;2024-03-07T15:28:59;6.00;99.90
54431;DHT22;40342;52.998;5.862;2024-03-07T15:31:28;6.20;99.90
54431;DHT22;40342;52.998;5.862;2024-03-07T15:33:53;6.00;99.90
54431;DHT22;40342;52.998;5.862;2024-03-07T15:36:20;6.00;99.90
54431;DHT22;40342;52.998;5.862;2024-03-07T15:38:51;5.90;99.90
54431;DHT22;40342;52.998;5.862;2024-03-07T15:41:17;5.90;99.90
54431;DHT22;40342;52.998;5.862;2024-03-07T15:43:42;5.90;99.90
54431;DHT22;40342;52.998;5.862;2024-03-07T15:46:09;5.90;99.90
54431;DHT22;40342;52.998;5.862;2024-03-07T15:48:37;5.90;99.90
54431;DHT22;40342;52.998;5.862;2024-03-07T15:51:03;5.90;99.90
54431;DHT22;40342;52.998;5.862;2024-03-07T15:53:30;5.90;99.90
54431;DHT22;40342;52.998;5.862;2024-03-07T15:55:59;5.90;99.90
54431;DHT22;40342;52.998;5.862;2024-03-07T15:58:25;5.90;99.90
54431;DHT22;40342;52.998;5.862;2024-03-07T16:00:51;5.80;99.90
54431;DHT22;40342;52.998;5.862;2024-03-07T16:03:16;5.80;99.90
54431;DHT22;40342;52.998;5.862;2024-03-07T16:05:43;5.90;99.90
54431;DHT22;40342;52.998;5.862;2024-03-07T16:08:14;5.90;99.90
54431;DHT22;40342;52.998;5.862;2024-03-07T16:10:42;5.90;99.90
54431;DHT22;40342;52.998;5.862;2024-03-07T16:13:09;5.90;99.90
54431;DHT22;40342;52.998;5.862;2024-03-07T16:15:38;5.80;99.90
54431;DHT22;40342;52.998;5.862;2024-03-07T16:18:04;5.80;99.90
54431;DHT22;40342;52.998;5.862;2024-03-07T16:20:32;5.90;99.90
54431;DHT22;40342;52.998;5.862;2024-03-07T16:22:59;5.80;99.90
54431;DHT22;40342;52.998;5.862;2024-03-07T16:25:26;5.80;99.90
54431;DHT22;40342;52.998;5.862;2024-03-07T16:27:53;5.90;99.90